createdAt,value
2022-08-23T00:00:13.733Z,0.00
2022-08-23T00:01:12.865Z,0.00
2022-08-23T00:02:23.411Z,0.00
2022-08-23T00:03:14.253Z,0.00
2022-08-23T00:04:13.308Z,0.00
2022-08-23T00:05:14.468Z,0.00
2022-08-23T00:06:13.609Z,0.00
2022-08-23T00:07:13.778Z,0.00
2022-08-23T00:08:13.968Z,0.00
2022-08-23T00:09:14.114Z,0.00
2022-08-23T00:10:14.267Z,0.00
2022-08-23T00:11:14.422Z,0.00
2022-08-23T00:12:15.472Z,0.00
2022-08-23T00:13:14.749Z,0.00
2022-08-23T00:14:14.902Z,0.00
2022-08-23T00:15:15.068Z,0.00
2022-08-23T00:16:15.975Z,0.00
2022-08-23T00:17:25.579Z,0.00
2022-08-23T00:18:17.001Z,0.00
2022-08-23T00:19:15.755Z,0.00
2022-08-23T00:20:16.486Z,0.00
2022-08-23T00:21:16.180Z,0.00
2022-08-23T00:22:16.348Z,0.00
2022-08-23T00:23:16.480Z,0.00
2022-08-23T00:24:16.637Z,0.00
2022-08-23T00:25:17.488Z,0.00
2022-08-23T00:26:17.027Z,0.00
2022-08-23T00:27:17.223Z,0.00
2022-08-23T00:28:17.390Z,0.00
2022-08-23T00:29:17.545Z,0.00
2022-08-23T00:30:17.713Z,0.00
2022-08-23T00:31:18.994Z,0.00
2022-08-23T00:32:18.101Z,0.00
2022-08-23T00:33:18.489Z,0.00
2022-08-23T00:34:18.384Z,0.00
2022-08-23T00:35:26.588Z,0.00
2022-08-23T00:36:19.729Z,0.00
2022-08-23T00:37:18.864Z,0.00
2022-08-23T00:38:34.462Z,0.00
2022-08-23T00:39:20.979Z,0.00
2022-08-23T00:40:19.571Z,0.00
2022-08-23T00:41:19.556Z,0.00
2022-08-23T00:42:20.480Z,0.00
2022-08-23T00:43:19.876Z,0.00
2022-08-23T00:44:20.041Z,0.00
2022-08-23T00:45:20.225Z,0.00
2022-08-23T00:46:20.982Z,0.00
2022-08-23T00:47:20.650Z,0.00
2022-08-23T00:48:20.833Z,0.00
2022-08-23T00:49:21.014Z,0.00
2022-08-23T00:50:24.107Z,0.00
2022-08-23T00:51:21.416Z,0.00
2022-08-23T00:52:21.594Z,0.00
2022-08-23T00:53:21.752Z,0.00
2022-08-23T00:54:21.931Z,0.00
2022-08-23T00:55:22.102Z,0.00
2022-08-23T00:56:22.234Z,0.00
2022-08-23T00:57:22.404Z,0.00
2022-08-23T00:58:23.553Z,0.00
2022-08-23T00:59:23.002Z,0.00
2022-08-23T01:00:23.015Z,0.00
2022-08-23T01:01:23.230Z,0.00
2022-08-23T01:02:23.300Z,0.00
2022-08-23T01:03:23.995Z,0.00
2022-08-23T01:04:23.611Z,0.00
2022-08-23T01:05:24.486Z,0.00
2022-08-23T01:06:24.007Z,0.00
2022-08-23T01:07:24.986Z,0.00
2022-08-23T01:08:24.347Z,0.00
2022-08-23T01:09:24.548Z,0.00
2022-08-23T01:10:24.679Z,0.00
2022-08-23T01:11:25.490Z,0.00
2022-08-23T01:12:32.226Z,0.00
2022-08-23T01:13:26.212Z,0.00
2022-08-23T01:14:25.505Z,0.00
2022-08-23T01:15:25.619Z,0.00
2022-08-23T01:16:25.749Z,0.00
2022-08-23T01:17:25.903Z,0.00
2022-08-23T01:18:26.993Z,0.00
2022-08-23T01:19:26.263Z,0.00
2022-08-23T01:20:27.026Z,0.00
2022-08-23T01:21:26.580Z,0.00
2022-08-23T01:22:26.751Z,0.00
2022-08-23T01:23:27.496Z,0.00
2022-08-23T01:25:07.345Z,0.00
2022-08-23T01:25:28.508Z,0.00
2022-08-23T01:26:27.498Z,0.00
2022-08-23T01:27:27.670Z,0.00
2022-08-23T01:28:27.809Z,0.00
2022-08-23T01:29:28.495Z,0.00
2022-08-23T01:30:28.510Z,0.00
2022-08-23T01:31:28.315Z,0.00
2022-08-23T01:32:28.519Z,0.00
2022-08-23T01:33:28.689Z,0.00
2022-08-23T01:34:28.880Z,0.00
2022-08-23T01:35:29.132Z,0.00
2022-08-23T01:36:29.225Z,0.00
2022-08-23T01:37:29.439Z,0.00
2022-08-23T01:38:30.319Z,0.00
2022-08-23T01:39:29.806Z,0.00
2022-08-23T01:40:30.014Z,0.00
2022-08-23T01:41:30.187Z,0.00
2022-08-23T01:42:30.342Z,0.00
2022-08-23T01:43:31.509Z,0.00
2022-08-23T01:44:30.697Z,0.00
2022-08-23T01:45:30.894Z,0.00
2022-08-23T01:46:32.007Z,0.00
2022-08-23T01:47:32.009Z,0.00
2022-08-23T01:48:31.395Z,0.00
2022-08-23T01:49:32.528Z,0.00
2022-08-23T01:50:31.873Z,0.00
2022-08-23T01:51:31.996Z,0.00
2022-08-23T01:52:32.199Z,0.00
2022-08-23T01:53:32.390Z,0.00
2022-08-23T01:54:32.579Z,0.00
2022-08-23T01:55:33.507Z,0.00
2022-08-23T01:56:38.903Z,0.00
2022-08-23T01:57:34.165Z,0.00
2022-08-23T01:58:33.411Z,0.00
2022-08-23T01:59:34.507Z,0.00
2022-08-23T02:00:33.779Z,0.00
2022-08-23T02:01:34.047Z,0.00
2022-08-23T02:02:34.111Z,0.00
2022-08-23T02:03:35.012Z,0.00
2022-08-23T02:04:34.389Z,0.00
2022-08-23T02:05:35.512Z,0.00
2022-08-23T02:06:34.764Z,0.00
2022-08-23T02:07:34.880Z,0.00
2022-08-23T02:08:35.029Z,0.00
2022-08-23T02:09:35.176Z,0.00
2022-08-23T02:10:36.023Z,0.00
2022-08-23T02:11:35.533Z,0.00
2022-08-23T02:12:35.691Z,0.00
2022-08-23T02:13:35.838Z,0.00
2022-08-23T02:14:36.030Z,0.00
2022-08-23T02:15:36.122Z,0.00
2022-08-23T02:16:36.308Z,0.00
2022-08-23T02:17:37.016Z,0.00
2022-08-23T02:18:36.670Z,0.00
2022-08-23T02:19:36.844Z,0.00
2022-08-23T02:20:36.968Z,0.00
2022-08-23T02:21:37.119Z,0.00
2022-08-23T02:22:37.329Z,0.00
2022-08-23T02:23:37.534Z,0.00
2022-08-23T02:24:37.657Z,0.00
2022-08-23T02:25:37.917Z,0.00
2022-08-23T02:26:39.018Z,0.00
2022-08-23T02:27:38.246Z,0.00
2022-08-23T02:28:39.477Z,0.00
2022-08-23T02:29:39.832Z,0.00
2022-08-23T02:30:38.934Z,0.00
2022-08-23T02:31:39.110Z,0.00
2022-08-23T02:32:39.248Z,0.00
2022-08-23T02:33:39.373Z,0.00
2022-08-23T02:34:40.525Z,0.00
2022-08-23T02:35:39.783Z,0.00
2022-08-23T02:36:39.916Z,0.00
2022-08-23T02:37:40.112Z,0.00
2022-08-23T02:38:41.051Z,0.00
2022-08-23T02:39:40.490Z,0.00
2022-08-23T02:40:41.526Z,0.00
2022-08-23T02:41:40.896Z,0.00
2022-08-23T02:42:41.536Z,0.00
2022-08-23T02:43:41.260Z,0.00
2022-08-23T02:44:41.432Z,0.00
2022-08-23T02:45:41.587Z,0.00
2022-08-23T02:46:42.528Z,0.00
2022-08-23T02:47:41.912Z,0.00
2022-08-23T02:48:42.067Z,0.00
2022-08-23T02:49:42.289Z,0.00
2022-08-23T02:50:43.032Z,0.00
2022-08-23T02:51:42.680Z,0.00
2022-08-23T02:52:42.866Z,0.00
2022-08-23T02:53:43.039Z,0.00
2022-08-23T02:54:43.191Z,0.00
2022-08-23T02:55:43.338Z,0.00
2022-08-23T02:56:43.516Z,0.00
2022-08-23T02:57:43.641Z,0.00
2022-08-23T02:58:44.040Z,0.00
2022-08-23T02:59:44.531Z,0.00
2022-08-23T03:00:45.030Z,0.00
2022-08-23T03:01:44.294Z,0.00
2022-08-23T03:02:44.479Z,0.00
2022-08-23T03:03:44.669Z,0.00
2022-08-23T03:04:45.535Z,0.00
2022-08-23T03:05:45.542Z,0.00
2022-08-23T03:06:45.167Z,0.00
2022-08-23T03:07:46.034Z,0.00
2022-08-23T03:08:46.034Z,0.00
2022-08-23T03:09:46.538Z,0.00
2022-08-23T03:10:45.922Z,0.00
2022-08-23T03:11:47.033Z,0.00
2022-08-23T03:12:46.268Z,0.00
2022-08-23T03:13:46.384Z,0.00
2022-08-23T03:14:46.529Z,0.00
2022-08-23T03:15:46.730Z,0.00
2022-08-23T03:16:46.871Z,0.00
2022-08-23T03:17:46.985Z,0.00
2022-08-23T03:18:48.034Z,0.00
2022-08-23T03:19:48.037Z,0.00
2022-08-23T03:20:48.027Z,0.00
2022-08-23T03:21:49.098Z,0.00
2022-08-23T03:22:54.344Z,0.00
2022-08-23T03:23:48.999Z,0.00
2022-08-23T03:24:48.120Z,0.00
2022-08-23T03:25:48.579Z,0.00
2022-08-23T03:26:48.472Z,0.00
2022-08-23T03:27:48.613Z,0.00
2022-08-23T03:28:49.536Z,0.00
2022-08-23T03:29:48.928Z,0.00
2022-08-23T03:30:49.072Z,0.00
2022-08-23T03:31:49.560Z,0.00
2022-08-23T03:32:49.511Z,0.00
2022-08-23T03:33:50.044Z,0.00
2022-08-23T03:34:49.670Z,0.00
2022-08-23T03:35:49.906Z,0.00
2022-08-23T03:36:50.104Z,0.00
2022-08-23T03:37:55.061Z,0.00
2022-08-23T03:38:51.436Z,0.00
2022-08-23T03:39:50.707Z,0.00
2022-08-23T03:40:50.893Z,0.00
2022-08-23T03:41:52.077Z,0.00
2022-08-23T03:42:51.194Z,0.00
2022-08-23T03:43:51.352Z,0.00
2022-08-23T03:44:51.505Z,0.00
2022-08-23T03:45:52.757Z,0.00
2022-08-23T03:46:52.544Z,0.00
2022-08-23T03:47:52.049Z,0.00
2022-08-23T03:48:52.209Z,0.00
2022-08-23T03:49:53.048Z,0.00
2022-08-23T03:50:54.632Z,0.00
2022-08-23T03:51:52.759Z,0.00
2022-08-23T03:52:52.952Z,0.00
2022-08-23T03:53:53.111Z,0.00
2022-08-23T03:54:53.288Z,0.00
2022-08-23T03:55:53.492Z,0.00
2022-08-23T03:56:54.553Z,4.00
2022-08-23T03:57:53.804Z,4.00
2022-08-23T03:58:54.548Z,4.00
2022-08-23T03:59:54.168Z,0.00
2022-08-23T04:00:54.321Z,4.00
2022-08-23T04:01:54.506Z,4.00
2022-08-23T04:02:54.701Z,4.00
2022-08-23T04:03:54.874Z,4.00
2022-08-23T04:04:55.027Z,4.00
2022-08-23T04:05:56.055Z,4.00
2022-08-23T04:06:55.452Z,8.00
2022-08-23T04:07:55.675Z,8.00
2022-08-23T04:08:55.762Z,8.00
2022-08-23T04:09:55.908Z,12.00
2022-08-23T04:10:57.062Z,12.00
2022-08-23T04:11:56.302Z,12.00
2022-08-23T04:12:56.470Z,16.00
2022-08-23T04:13:56.661Z,16.00
2022-08-23T04:14:57.836Z,20.00
2022-08-23T04:15:57.558Z,24.00
2022-08-23T04:16:57.089Z,24.00
2022-08-23T04:17:58.057Z,32.00
2022-08-23T04:19:30.866Z,32.00
2022-08-23T04:19:57.596Z,36.00
2022-08-23T04:20:57.746Z,40.00
2022-08-23T04:21:57.907Z,44.00
2022-08-23T04:22:58.602Z,52.00
2022-08-23T04:23:58.240Z,56.00
2022-08-23T04:24:58.423Z,60.00
2022-08-23T04:25:58.569Z,68.00
2022-08-23T04:26:58.771Z,72.00
2022-08-23T04:27:59.056Z,76.00
2022-08-23T04:29:00.116Z,84.00
2022-08-23T04:30:00.367Z,92.00
2022-08-23T04:30:59.509Z,100.00
2022-08-23T04:32:00.603Z,108.00
2022-08-23T04:32:59.799Z,116.00
2022-08-23T04:33:59.978Z,124.00
2022-08-23T04:35:00.133Z,128.00
2022-08-23T04:36:00.291Z,140.00
2022-08-23T04:37:00.440Z,152.00
2022-08-23T04:38:00.790Z,168.00
2022-08-23T04:39:01.609Z,176.00
2022-08-23T04:40:02.167Z,184.00
2022-08-23T04:41:01.314Z,204.00
2022-08-23T04:42:01.471Z,212.00
2022-08-23T04:43:01.611Z,224.00
2022-08-23T04:44:01.773Z,248.00
2022-08-23T04:45:01.931Z,264.00
2022-08-23T04:46:02.606Z,276.00
2022-08-23T04:47:03.108Z,304.00
2022-08-23T04:48:02.714Z,320.00
2022-08-23T04:49:02.749Z,332.00
2022-08-23T04:50:02.886Z,340.00
2022-08-23T04:51:03.025Z,368.00
2022-08-23T04:52:03.167Z,384.00
2022-08-23T04:53:03.639Z,420.00
2022-08-23T04:54:04.113Z,416.00
2022-08-23T04:55:03.716Z,440.00
2022-08-23T04:56:03.886Z,464.00
2022-08-23T04:57:03.999Z,492.00
2022-08-23T04:58:04.612Z,520.00
2022-08-23T04:59:04.338Z,540.00
2022-08-23T05:00:04.461Z,568.00
2022-08-23T05:01:04.677Z,600.00
2022-08-23T05:02:04.734Z,608.00
2022-08-23T05:03:05.621Z,624.00
2022-08-23T05:04:05.044Z,656.00
2022-08-23T05:05:05.189Z,684.00
2022-08-23T05:06:05.366Z,696.00
2022-08-23T05:07:05.504Z,716.00
2022-08-23T05:08:06.615Z,736.00
2022-08-23T05:09:05.897Z,756.00
2022-08-23T05:10:06.072Z,812.00
2022-08-23T05:11:06.249Z,808.00
2022-08-23T05:12:06.633Z,836.00
2022-08-23T05:13:06.673Z,876.00
2022-08-23T05:14:07.629Z,892.00
2022-08-23T05:15:07.624Z,924.00
2022-08-23T05:16:08.145Z,936.00
2022-08-23T05:17:07.348Z,960.00
2022-08-23T05:18:08.125Z,988.00
2022-08-23T05:19:07.662Z,1020.00
2022-08-23T05:20:07.853Z,1052.00
2022-08-23T05:21:08.619Z,1068.00
2022-08-23T05:22:08.173Z,1104.00
2022-08-23T05:23:09.122Z,1136.00
2022-08-23T05:24:08.492Z,392.00
2022-08-23T05:25:09.641Z,1172.00
2022-08-23T05:26:08.773Z,1216.00
2022-08-23T05:27:13.373Z,1236.00
2022-08-23T05:28:10.101Z,1256.00
2022-08-23T05:29:10.146Z,1268.00
2022-08-23T05:30:14.447Z,1300.00
2022-08-23T05:31:11.733Z,1332.00
2022-08-23T05:32:09.753Z,1368.00
2022-08-23T05:33:09.900Z,1396.00
2022-08-23T05:34:10.624Z,1448.00
2022-08-23T05:35:10.263Z,1448.00
2022-08-23T05:36:10.408Z,1476.00
2022-08-23T05:37:10.574Z,1540.00
2022-08-23T05:38:10.740Z,1560.00
2022-08-23T05:39:10.917Z,1596.00
2022-08-23T05:40:11.148Z,1628.00
2022-08-23T05:41:12.125Z,1656.00
2022-08-23T05:42:11.509Z,1724.00
2022-08-23T05:43:11.652Z,1728.00
2022-08-23T05:44:12.347Z,1804.00
2022-08-23T05:45:12.032Z,1840.00
2022-08-23T05:46:13.279Z,1856.00
2022-08-23T05:47:12.425Z,1932.00
2022-08-23T05:48:12.585Z,2048.00
2022-08-23T05:49:12.762Z,2016.00
2022-08-23T05:50:13.638Z,2068.00
2022-08-23T05:51:13.156Z,2404.00
2022-08-23T05:52:14.133Z,2716.00
2022-08-23T05:53:13.536Z,2108.00
2022-08-23T05:54:13.686Z,2224.00
2022-08-23T05:55:13.843Z,2224.00
2022-08-23T05:56:13.993Z,2236.00
2022-08-23T05:57:14.159Z,2216.00
2022-08-23T05:58:14.276Z,2304.00
2022-08-23T05:59:15.157Z,2360.00
2022-08-23T06:00:14.653Z,2444.00
2022-08-23T06:01:14.828Z,2884.00
2022-08-23T06:02:14.992Z,2720.00
2022-08-23T06:03:16.140Z,3336.00
2022-08-23T06:04:15.367Z,2960.00
2022-08-23T06:05:15.507Z,4424.00
2022-08-23T06:06:15.643Z,4680.00
2022-08-23T06:07:16.639Z,4376.00
2022-08-23T06:08:16.635Z,3424.00
2022-08-23T06:09:16.127Z,2864.00
2022-08-23T06:10:16.651Z,2876.00
2022-08-23T06:11:16.435Z,2992.00
2022-08-23T06:12:16.570Z,2952.00
2022-08-23T06:13:16.719Z,3012.00
2022-08-23T06:14:16.885Z,3052.00
2022-08-23T06:15:17.076Z,3136.00
2022-08-23T06:16:17.248Z,3152.00
2022-08-23T06:17:17.384Z,3272.00
2022-08-23T06:18:17.564Z,3240.00
2022-08-23T06:19:17.753Z,3320.00
2022-08-23T06:20:17.953Z,3452.00
2022-08-23T06:21:18.157Z,3432.00
2022-08-23T06:22:19.142Z,3476.00
2022-08-23T06:23:18.541Z,3512.00
2022-08-23T06:24:18.697Z,3580.00
2022-08-23T06:25:19.669Z,3648.00
2022-08-23T06:26:19.055Z,3644.00
2022-08-23T06:27:19.207Z,3764.00
2022-08-23T06:28:20.142Z,3704.00
2022-08-23T06:29:20.974Z,3500.00
2022-08-23T06:30:20.649Z,3688.00
2022-08-23T06:31:19.947Z,3712.00
2022-08-23T06:32:20.197Z,3456.00
2022-08-23T06:33:20.433Z,3360.00
2022-08-23T06:34:20.604Z,3464.00
2022-08-23T06:35:37.865Z,3536.00
2022-08-23T06:36:21.912Z,3460.00
2022-08-23T06:37:21.222Z,3536.00
2022-08-23T06:38:21.246Z,3384.00
2022-08-23T06:39:22.148Z,3596.00
2022-08-23T06:40:21.650Z,3732.00
2022-08-23T06:41:21.693Z,10372.00
2022-08-23T06:42:37.882Z,7212.00
2022-08-23T06:43:24.015Z,3616.00
2022-08-23T06:44:22.159Z,4032.00
2022-08-23T06:45:22.339Z,3792.00
2022-08-23T06:46:23.769Z,4508.00
2022-08-23T06:47:23.181Z,4424.00
2022-08-23T06:48:23.652Z,4528.00
2022-08-23T06:49:23.651Z,4436.00
2022-08-23T06:50:23.665Z,4704.00
2022-08-23T06:51:23.285Z,4868.00
2022-08-23T06:52:23.419Z,4612.00
2022-08-23T06:53:23.669Z,4764.00
2022-08-23T06:54:23.698Z,4796.00
2022-08-23T06:55:23.822Z,4884.00
2022-08-23T06:56:23.988Z,4808.00
2022-08-23T06:57:24.668Z,4624.00
2022-08-23T06:58:24.305Z,4892.00
2022-08-23T06:59:24.448Z,4868.00
2022-08-23T07:00:24.587Z,4736.00
2022-08-23T07:01:44.537Z,4836.00
2022-08-23T07:02:26.984Z,4784.00
2022-08-23T07:03:25.662Z,4904.00
2022-08-23T07:04:25.674Z,5104.00
2022-08-23T07:05:25.332Z,5068.00
2022-08-23T07:06:25.494Z,5160.00
2022-08-23T07:07:25.673Z,5008.00
2022-08-23T07:08:26.803Z,5060.00
2022-08-23T07:09:25.945Z,4976.00
2022-08-23T07:10:26.090Z,5080.00
2022-08-23T07:11:26.233Z,5092.00
2022-08-23T07:12:26.428Z,5240.00
2022-08-23T07:13:27.175Z,5084.00
2022-08-23T07:14:26.740Z,4996.00
2022-08-23T07:15:26.888Z,4896.00
2022-08-23T07:16:27.740Z,4196.00
2022-08-23T07:17:27.281Z,3872.00
2022-08-23T07:18:28.162Z,3964.00
2022-08-23T07:19:29.227Z,3880.00
2022-08-23T07:20:28.187Z,3888.00
2022-08-23T07:21:28.665Z,3792.00
2022-08-23T07:22:28.300Z,4016.00
2022-08-23T07:23:28.431Z,4148.00
2022-08-23T07:24:32.974Z,4380.00
2022-08-23T07:25:30.779Z,3912.00
2022-08-23T07:26:29.009Z,4680.00
2022-08-23T07:27:29.213Z,5004.00
2022-08-23T07:28:30.164Z,4960.00
2022-08-23T07:29:29.556Z,5052.00
2022-08-23T07:30:30.667Z,5648.00
2022-08-23T07:31:30.223Z,5104.00
2022-08-23T07:32:30.166Z,7568.00
2022-08-23T07:33:30.325Z,12628.00
2022-08-23T07:34:30.545Z,7328.00
2022-08-23T07:35:30.709Z,9376.00
2022-08-23T07:36:31.669Z,6116.00
2022-08-23T07:37:31.183Z,10396.00
2022-08-23T07:38:31.213Z,5184.00
2022-08-23T07:39:31.385Z,15168.00
2022-08-23T07:40:34.488Z,13684.00
2022-08-23T07:41:33.047Z,11424.00
2022-08-23T07:42:32.674Z,5672.00
2022-08-23T07:43:32.071Z,6264.00
2022-08-23T07:44:33.173Z,6684.00
2022-08-23T07:45:33.167Z,11328.00
2022-08-23T07:46:32.593Z,13208.00
2022-08-23T07:47:32.773Z,21376.00
2022-08-23T07:48:52.810Z,52416.00
2022-08-23T07:49:35.674Z,31840.00
2022-08-23T07:50:33.257Z,30016.00
2022-08-23T07:51:33.378Z,27744.00
2022-08-23T07:52:33.539Z,7588.00
2022-08-23T07:53:38.057Z,7572.00
2022-08-23T07:54:33.900Z,12572.00
2022-08-23T07:55:34.119Z,10292.00
2022-08-23T07:56:35.176Z,15340.00
2022-08-23T07:57:34.508Z,11528.00
2022-08-23T07:58:34.702Z,24544.00
2022-08-23T07:59:35.675Z,9948.00
2022-08-23T08:00:35.130Z,6268.00
2022-08-23T08:01:35.352Z,8464.00
2022-08-23T08:02:35.462Z,6516.00
2022-08-23T08:03:35.584Z,6004.00
2022-08-23T08:04:36.671Z,14944.00
2022-08-23T08:05:36.967Z,12660.00
2022-08-23T08:06:36.150Z,9324.00
2022-08-23T08:07:37.208Z,5376.00
2022-08-23T08:08:37.193Z,5420.00
2022-08-23T08:09:36.571Z,5852.00
2022-08-23T08:10:37.708Z,3352.00
2022-08-23T08:11:36.973Z,7224.00
2022-08-23T08:12:37.683Z,7808.00
2022-08-23T08:13:37.271Z,12864.00
2022-08-23T08:14:37.490Z,8872.00
2022-08-23T08:15:38.199Z,19968.00
2022-08-23T08:16:37.848Z,23392.00
2022-08-23T08:17:37.979Z,26080.00
2022-08-23T08:18:38.687Z,44800.00
2022-08-23T08:19:38.329Z,14588.00
2022-08-23T08:20:39.190Z,7468.00
2022-08-23T08:21:38.706Z,35456.00
2022-08-23T08:22:39.691Z,19776.00
2022-08-23T08:23:39.086Z,5068.00
2022-08-23T08:24:40.190Z,10704.00
2022-08-23T08:25:39.432Z,9736.00
2022-08-23T08:26:40.222Z,5828.00
2022-08-23T08:27:39.723Z,5364.00
2022-08-23T08:28:40.204Z,5248.00
2022-08-23T08:29:40.112Z,4776.00
2022-08-23T08:30:40.281Z,5216.00
2022-08-23T08:31:40.491Z,6244.00
2022-08-23T08:32:47.008Z,6496.00
2022-08-23T08:33:42.809Z,4920.00
2022-08-23T08:34:41.212Z,6184.00
2022-08-23T08:35:41.137Z,8296.00
2022-08-23T08:36:41.374Z,5968.00
2022-08-23T08:37:41.707Z,4108.00
2022-08-23T08:38:48.412Z,4060.00
2022-08-23T08:39:42.847Z,4116.00
2022-08-23T08:40:42.699Z,4572.00
2022-08-23T08:41:42.202Z,3772.00
2022-08-23T08:42:42.720Z,3928.00
2022-08-23T08:43:42.480Z,3964.00
2022-08-23T08:44:42.652Z,4176.00
2022-08-23T08:45:43.713Z,3896.00
2022-08-23T08:46:44.058Z,3784.00
2022-08-23T08:47:43.207Z,3840.00
2022-08-23T08:48:44.221Z,3864.00
2022-08-23T08:49:43.493Z,4132.00
2022-08-23T08:50:43.671Z,4328.00
2022-08-23T08:51:44.698Z,4232.00
2022-08-23T08:52:44.122Z,4200.00
2022-08-23T08:53:44.293Z,4144.00
2022-08-23T08:54:48.181Z,4132.00
2022-08-23T08:55:45.730Z,3772.00
2022-08-23T08:56:45.717Z,3632.00
2022-08-23T08:57:45.085Z,3692.00
2022-08-23T08:58:46.222Z,3612.00
2022-08-23T08:59:46.302Z,3584.00
2022-08-23T09:00:46.390Z,3524.00
2022-08-23T09:01:45.839Z,6388.00
2022-08-23T09:02:45.983Z,8808.00
2022-08-23T09:03:46.217Z,6408.00
2022-08-23T09:04:46.704Z,3908.00
2022-08-23T09:05:46.349Z,3456.00
2022-08-23T09:06:46.516Z,3396.00
2022-08-23T09:07:47.209Z,3348.00
2022-08-23T09:08:47.709Z,3396.00
2022-08-23T09:09:47.737Z,3540.00
2022-08-23T09:10:47.339Z,6108.00
2022-08-23T09:11:47.474Z,5672.00
2022-08-23T09:12:47.597Z,4508.00
2022-08-23T09:13:47.750Z,3780.00
2022-08-23T09:14:48.711Z,3908.00
2022-08-23T09:15:48.125Z,4568.00
2022-08-23T09:16:48.270Z,5108.00
2022-08-23T09:17:48.506Z,3736.00
2022-08-23T09:18:48.711Z,5780.00
2022-08-23T09:19:49.711Z,11576.00
2022-08-23T09:20:49.709Z,5152.00
2022-08-23T09:21:49.104Z,7872.00
2022-08-23T09:22:50.215Z,5060.00
2022-08-23T09:23:58.797Z,4364.00
2022-08-23T09:24:51.215Z,5700.00
2022-08-23T09:25:49.807Z,10168.00
2022-08-23T09:26:49.920Z,7088.00
2022-08-23T09:27:50.741Z,4872.00
2022-08-23T09:28:50.258Z,5112.00
2022-08-23T09:29:50.432Z,4788.00
2022-08-23T09:30:50.710Z,5716.00
2022-08-23T09:31:50.971Z,6300.00
2022-08-23T09:32:50.946Z,6724.00
2022-08-23T09:33:51.147Z,5672.00
2022-08-23T09:34:51.297Z,4304.00
2022-08-23T09:35:52.218Z,3516.00
2022-08-23T09:36:52.406Z,3560.00
2022-08-23T09:37:52.859Z,3516.00
2022-08-23T09:38:52.757Z,4676.00
2022-08-23T09:39:52.200Z,5048.00
2022-08-23T09:40:52.281Z,4628.00
2022-08-23T09:41:52.428Z,5796.00
2022-08-23T09:42:53.221Z,6212.00
2022-08-23T09:43:53.242Z,7388.00
2022-08-23T09:44:53.229Z,8884.00
2022-08-23T09:45:53.119Z,7724.00
2022-08-23T09:46:54.229Z,5928.00
2022-08-23T09:47:53.487Z,4056.00
2022-08-23T09:48:53.649Z,3520.00
2022-08-23T09:49:53.870Z,3460.00
2022-08-23T09:50:54.029Z,3012.00
2022-08-23T09:51:54.339Z,3236.00
2022-08-23T09:52:54.343Z,3116.00
2022-08-23T09:53:54.508Z,3116.00
2022-08-23T09:54:55.856Z,3164.00
2022-08-23T09:55:55.809Z,3012.00
2022-08-23T09:56:55.039Z,3020.00
2022-08-23T09:57:55.724Z,3568.00
2022-08-23T09:58:55.339Z,3364.00
2022-08-23T09:59:55.741Z,2896.00
2022-08-23T10:00:55.739Z,3056.00
2022-08-23T10:01:55.794Z,3076.00
2022-08-23T10:02:56.255Z,3184.00
2022-08-23T10:03:56.741Z,3632.00
2022-08-23T10:04:57.352Z,3928.00
2022-08-23T10:05:56.501Z,3728.00
2022-08-23T10:06:57.232Z,4164.00
2022-08-23T10:07:56.854Z,5720.00
2022-08-23T10:08:57.728Z,6444.00
2022-08-23T10:09:57.736Z,5008.00
2022-08-23T10:10:57.356Z,3756.00
2022-08-23T10:11:58.234Z,3844.00
2022-08-23T10:12:57.758Z,4160.00
2022-08-23T10:13:58.244Z,3512.00
2022-08-23T10:14:58.131Z,3920.00
2022-08-23T10:15:59.291Z,4876.00
2022-08-23T10:16:58.459Z,5676.00
2022-08-23T10:17:58.609Z,5252.00
2022-08-23T10:18:59.734Z,4424.00
2022-08-23T10:19:59.247Z,3812.00
2022-08-23T10:20:59.735Z,2904.00
2022-08-23T10:22:00.237Z,2884.00
2022-08-23T10:22:59.473Z,2864.00
2022-08-23T10:23:59.608Z,2772.00
2022-08-23T10:24:59.750Z,2932.00
2022-08-23T10:25:59.884Z,2972.00
2022-08-23T10:27:00.128Z,2984.00
2022-08-23T10:28:00.472Z,2836.00
2022-08-23T10:29:01.239Z,2868.00
2022-08-23T10:30:00.613Z,3244.00
2022-08-23T10:31:00.889Z,3828.00
2022-08-23T10:32:01.739Z,4096.00
2022-08-23T10:33:01.134Z,4688.00
2022-08-23T10:34:01.750Z,3548.00
2022-08-23T10:35:01.432Z,3432.00
2022-08-23T10:36:01.601Z,3612.00
2022-08-23T10:37:01.791Z,4184.00
2022-08-23T10:38:02.153Z,3996.00
2022-08-23T10:39:02.155Z,3840.00
2022-08-23T10:40:04.702Z,2144.00
2022-08-23T10:41:04.265Z,2064.00
2022-08-23T10:42:02.769Z,2168.00
2022-08-23T10:43:02.914Z,2008.00
2022-08-23T10:44:03.076Z,2020.00
2022-08-23T10:45:03.217Z,2040.00
2022-08-23T10:46:03.396Z,2088.00
2022-08-23T10:47:03.563Z,2064.00
2022-08-23T10:48:03.711Z,2068.00
2022-08-23T10:49:03.853Z,2156.00
2022-08-23T10:50:03.966Z,2204.00
2022-08-23T10:51:04.759Z,2128.00
2022-08-23T10:52:04.358Z,3064.00
2022-08-23T10:53:04.522Z,3152.00
2022-08-23T10:54:04.762Z,2280.00
2022-08-23T10:55:04.803Z,3260.00
2022-08-23T10:56:04.938Z,3168.00
2022-08-23T10:57:05.750Z,3348.00
2022-08-23T10:58:05.219Z,2220.00
2022-08-23T10:59:05.381Z,2244.00
2022-08-23T11:00:05.557Z,2860.00
2022-08-23T11:01:05.720Z,3560.00
2022-08-23T11:02:05.874Z,2240.00
2022-08-23T11:03:06.027Z,2964.00
2022-08-23T11:04:06.208Z,2596.00
2022-08-23T11:05:06.780Z,2196.00
2022-08-23T11:06:07.276Z,2260.00
2022-08-23T11:07:07.757Z,2328.00
2022-08-23T11:08:07.002Z,2292.00
2022-08-23T11:09:07.157Z,2272.00
2022-08-23T11:10:16.228Z,2444.00
2022-08-23T11:11:08.529Z,2980.00
2022-08-23T11:12:10.928Z,3328.00
2022-08-23T11:13:07.934Z,2844.00
2022-08-23T11:14:08.092Z,3044.00
2022-08-23T11:15:08.228Z,3132.00
2022-08-23T11:16:08.382Z,2024.00
2022-08-23T11:17:08.798Z,2136.00
2022-08-23T11:18:08.676Z,2384.00
2022-08-23T11:19:09.877Z,3188.00
2022-08-23T11:20:09.766Z,3172.00
2022-08-23T11:21:09.286Z,3320.00
2022-08-23T11:22:10.495Z,3476.00
2022-08-23T11:23:09.664Z,3532.00
2022-08-23T11:24:09.834Z,3644.00
2022-08-23T11:25:10.764Z,3524.00
2022-08-23T11:26:10.142Z,3612.00
2022-08-23T11:27:43.706Z,3668.00
2022-08-23T11:28:10.460Z,3524.00
2022-08-23T11:29:10.641Z,3584.00
2022-08-23T11:30:10.802Z,3584.00
2022-08-23T11:31:11.764Z,3612.00
2022-08-23T11:32:11.191Z,2124.00
2022-08-23T11:33:11.361Z,2116.00
2022-08-23T11:34:11.594Z,2132.00
2022-08-23T11:35:12.295Z,2136.00
2022-08-23T11:36:12.815Z,2128.00
2022-08-23T11:37:12.067Z,2124.00
2022-08-23T11:38:12.211Z,2264.00
2022-08-23T11:39:12.394Z,2956.00
2022-08-23T11:40:17.960Z,3824.00
2022-08-23T11:41:14.803Z,2576.00
2022-08-23T11:42:13.033Z,2268.00
2022-08-23T11:43:13.199Z,2296.00
2022-08-23T11:44:13.378Z,2332.00
2022-08-23T11:45:13.542Z,2528.00
2022-08-23T11:46:13.746Z,2472.00
2022-08-23T11:47:13.914Z,2804.00
2022-08-23T11:48:14.813Z,2660.00
2022-08-23T11:49:14.214Z,2592.00
2022-08-23T11:50:15.305Z,2900.00
2022-08-23T11:51:14.551Z,4120.00
2022-08-23T11:52:14.740Z,4096.00
2022-08-23T11:53:15.256Z,4140.00
2022-08-23T11:54:15.620Z,2568.00
2022-08-23T11:55:15.821Z,3504.00
2022-08-23T11:56:15.444Z,2660.00
2022-08-23T11:57:15.609Z,2628.00
2022-08-23T11:58:15.762Z,4092.00
2022-08-23T11:59:15.910Z,4088.00
2022-08-23T12:00:17.468Z,4056.00
2022-08-23T12:01:16.802Z,4080.00
2022-08-23T12:02:17.916Z,4092.00
2022-08-23T12:03:16.881Z,2188.00
2022-08-23T12:04:16.691Z,2124.00
2022-08-23T12:05:17.813Z,2120.00
2022-08-23T12:06:17.813Z,2112.00
2022-08-23T12:07:17.187Z,2220.00
2022-08-23T12:08:17.833Z,3656.00
2022-08-23T12:09:18.312Z,2484.00
2022-08-23T12:10:18.798Z,2756.00
2022-08-23T12:11:17.936Z,3516.00
2022-08-23T12:12:18.107Z,4080.00
2022-08-23T12:13:18.233Z,2268.00
2022-08-23T12:14:18.388Z,2224.00
2022-08-23T12:15:19.329Z,2176.00
2022-08-23T12:16:19.381Z,2060.00
2022-08-23T12:17:19.302Z,2032.00
2022-08-23T12:18:23.951Z,1976.00
2022-08-23T12:19:21.766Z,2020.00
2022-08-23T12:20:20.317Z,1980.00
2022-08-23T12:21:19.510Z,2032.00
2022-08-23T12:22:19.655Z,1904.00
2022-08-23T12:23:20.305Z,1884.00
2022-08-23T12:24:21.332Z,1824.00
2022-08-23T12:25:20.193Z,1840.00
2022-08-23T12:26:21.321Z,1836.00
2022-08-23T12:27:20.564Z,1880.00
2022-08-23T12:28:54.745Z,1884.00
2022-08-23T12:29:20.858Z,1848.00
2022-08-23T12:30:21.865Z,1848.00
2022-08-23T12:31:21.232Z,1872.00
2022-08-23T12:32:22.335Z,3444.00